sensor_id;sensor_type;location;lat;lon;timestamp;pressure;altitude;pressure_sealevel;temperature;humidity
49813;BME280;35706;52.100;5.056;2022-09-09T00:00:22;100740.59;;;17.38;72.96
49813;BME280;35706;52.100;5.056;2022-09-09T00:01:45;100744.44;;;17.50;72.76
49813;BME280;35706;52.100;5.056;2022-09-09T00:03:08;100737.06;;;17.23;74.50
49813;BME280;35706;52.100;5.056;2022-09-09T00:04:28;100746.31;;;17.12;74.63
49813;BME280;35706;52.100;5.056;2022-09-09T00:05:33;100744.78;;;17.18;74.51
49813;BME280;35706;52.100;5.056;2022-09-09T00:08:13;100739.84;;;17.15;74.65
49813;BME280;35706;52.100;5.056;2022-09-09T00:09:19;100743.97;;;17.32;73.90
49813;BME280;35706;52.100;5.056;2022-09-09T00:10:23;100743.03;;;17.25;74.39
49813;BME280;35706;52.100;5.056;2022-09-09T00:11:40;100744.03;;;17.54;73.13
49813;BME280;35706;52.100;5.056;2022-09-09T00:12:53;100747.25;;;17.49;72.66
49813;BME280;35706;52.100;5.056;2022-09-09T00:14:00;100737.63;;;17.63;72.03
49813;BME280;35706;52.100;5.056;2022-09-09T00:15:07;100743.56;;;17.65;72.12
49813;BME280;35706;52.100;5.056;2022-09-09T00:16:25;100738.38;;;17.72;71.52
49813;BME280;35706;52.100;5.056;2022-09-09T00:17:38;100745.16;;;17.29;73.88
49813;BME280;35706;52.100;5.056;2022-09-09T00:19:02;100740.47;;;17.02;75.13
49813;BME280;35706;52.100;5.056;2022-09-09T00:21:14;100739.09;;;17.06;75.05
49813;BME280;35706;52.100;5.056;2022-09-09T00:22:23;100744.59;;;17.19;74.73
49813;BME280;35706;52.100;5.056;2022-09-09T00:23:35;100743.78;;;16.58;77.24
49813;BME280;35706;52.100;5.056;2022-09-09T00:24:44;100744.91;;;16.63;77.17
49813;BME280;35706;52.100;5.056;2022-09-09T00:26:51;100748.09;;;16.82;76.12
49813;BME280;35706;52.100;5.056;2022-09-09T00:27:54;100747.94;;;16.83;76.19
49813;BME280;35706;52.100;5.056;2022-09-09T00:30:17;100746.00;;;16.23;78.53
49813;BME280;35706;52.100;5.056;2022-09-09T00:31:23;100742.50;;;16.31;78.53
49813;BME280;35706;52.100;5.056;2022-09-09T00:32:28;100737.41;;;16.67;76.79
49813;BME280;35706;52.100;5.056;2022-09-09T00:33:30;100738.50;;;16.81;76.44
49813;BME280;35706;52.100;5.056;2022-09-09T00:34:32;100740.06;;;16.67;76.73
49813;BME280;35706;52.100;5.056;2022-09-09T00:35:46;100731.63;;;16.63;76.80
49813;BME280;35706;52.100;5.056;2022-09-09T00:36:49;100737.63;;;16.57;77.27
49813;BME280;35706;52.100;5.056;2022-09-09T00:37:56;100737.19;;;16.54;77.44
49813;BME280;35706;52.100;5.056;2022-09-09T00:39:01;100745.44;;;16.36;78.12
49813;BME280;35706;52.100;5.056;2022-09-09T00:40:15;100747.72;;;16.16;78.98
49813;BME280;35706;52.100;5.056;2022-09-09T00:42:43;100748.09;;;16.36;78.21
49813;BME280;35706;52.100;5.056;2022-09-09T00:45:39;100755.28;;;15.96;79.87
49813;BME280;35706;52.100;5.056;2022-09-09T00:48:10;100743.66;;;16.05;79.25
49813;BME280;35706;52.100;5.056;2022-09-09T00:50:53;100742.50;;;16.31;78.12
49813;BME280;35706;52.100;5.056;2022-09-09T00:56:13;100733.66;;;16.76;76.09
49813;BME280;35706;52.100;5.056;2022-09-09T00:57:32;100746.41;;;16.89;75.31
49813;BME280;35706;52.100;5.056;2022-09-09T00:58:33;100743.00;;;16.95;74.79
49813;BME280;35706;52.100;5.056;2022-09-09T00:59:46;100739.28;;;17.04;74.54
49813;BME280;35706;52.100;5.056;2022-09-09T01:00:53;100738.53;;;16.73;75.81
49813;BME280;35706;52.100;5.056;2022-09-09T01:01:56;100739.69;;;16.93;75.01
49813;BME280;35706;52.100;5.056;2022-09-09T01:04:26;100737.81;;;16.79;75.30
49813;BME280;35706;52.100;5.056;2022-09-09T01:05:41;100742.25;;;16.63;76.38
49813;BME280;35706;52.100;5.056;2022-09-09T01:06:45;100733.47;;;16.63;76.21
49813;BME280;35706;52.100;5.056;2022-09-09T01:07:52;100739.69;;;16.55;76.54
49813;BME280;35706;52.100;5.056;2022-09-09T01:08:57;100734.78;;;16.44;77.27
49813;BME280;35706;52.100;5.056;2022-09-09T01:10:01;100731.75;;;16.70;75.45
49813;BME280;35706;52.100;5.056;2022-09-09T01:11:10;100736.59;;;16.20;77.87
49813;BME280;35706;52.100;5.056;2022-09-09T01:12:16;100732.94;;;16.21;78.35
49813;BME280;35706;52.100;5.056;2022-09-09T01:13:24;100730.13;;;16.46;77.08
49813;BME280;35706;52.100;5.056;2022-09-09T01:15:34;100736.75;;;16.65;76.16
49813;BME280;35706;52.100;5.056;2022-09-09T01:16:36;100726.34;;;16.78;75.38
49813;BME280;35706;52.100;5.056;2022-09-09T01:18:11;100729.94;;;16.71;75.99
49813;BME280;35706;52.100;5.056;2022-09-09T01:19:20;100733.78;;;16.68;75.67
49813;BME280;35706;52.100;5.056;2022-09-09T01:20:29;100730.19;;;16.76;75.69
49813;BME280;35706;52.100;5.056;2022-09-09T01:21:41;100729.09;;;16.70;75.83
49813;BME280;35706;52.100;5.056;2022-09-09T01:24:38;100724.06;;;16.75;75.44
49813;BME280;35706;52.100;5.056;2022-09-09T01:27:02;100727.91;;;16.73;75.11
49813;BME280;35706;52.100;5.056;2022-09-09T01:28:08;100734.00;;;16.81;74.87
49813;BME280;35706;52.100;5.056;2022-09-09T01:29:16;100734.81;;;16.59;76.12
49813;BME280;35706;52.100;5.056;2022-09-09T01:30:18;100726.84;;;16.59;76.21
49813;BME280;35706;52.100;5.056;2022-09-09T01:31:21;100733.06;;;16.51;76.55
49813;BME280;35706;52.100;5.056;2022-09-09T01:32:44;100726.44;;;16.70;75.52
49813;BME280;35706;52.100;5.056;2022-09-09T01:33:45;100731.56;;;16.48;76.22
49813;BME280;35706;52.100;5.056;2022-09-09T01:34:45;100727.38;;;16.08;78.24
49813;BME280;35706;52.100;5.056;2022-09-09T01:35:50;100722.41;;;16.36;77.25
49813;BME280;35706;52.100;5.056;2022-09-09T01:37:06;100724.44;;;16.72;75.48
49813;BME280;35706;52.100;5.056;2022-09-09T01:38:07;100721.28;;;16.54;75.84
49813;BME280;35706;52.100;5.056;2022-09-09T01:39:08;100720.94;;;16.72;75.16
49813;BME280;35706;52.100;5.056;2022-09-09T01:40:08;100731.19;;;16.83;74.82
49813;BME280;35706;52.100;5.056;2022-09-09T01:41:08;100727.16;;;16.87;74.25
49813;BME280;35706;52.100;5.056;2022-09-09T01:42:12;100718.09;;;16.96;73.81
49813;BME280;35706;52.100;5.056;2022-09-09T01:43:13;100722.19;;;16.84;74.39
49813;BME280;35706;52.100;5.056;2022-09-09T01:44:14;100708.19;;;16.52;75.80
49813;BME280;35706;52.100;5.056;2022-09-09T01:45:14;100710.06;;;16.66;75.12
49813;BME280;35706;52.100;5.056;2022-09-09T01:46:16;100712.06;;;16.87;74.30
49813;BME280;35706;52.100;5.056;2022-09-09T01:47:17;100710.78;;;16.98;73.50
49813;BME280;35706;52.100;5.056;2022-09-09T01:48:18;100711.41;;;16.62;75.39
49813;BME280;35706;52.100;5.056;2022-09-09T01:49:19;100702.28;;;16.80;74.67
49813;BME280;35706;52.100;5.056;2022-09-09T01:50:20;100705.97;;;16.79;74.17
49813;BME280;35706;52.100;5.056;2022-09-09T01:51:21;100704.75;;;16.66;75.17
49813;BME280;35706;52.100;5.056;2022-09-09T01:52:22;100711.19;;;16.49;76.01
49813;BME280;35706;52.100;5.056;2022-09-09T01:53:23;100709.09;;;16.59;75.63
49813;BME280;35706;52.100;5.056;2022-09-09T01:54:28;100711.75;;;16.59;75.79
49813;BME280;35706;52.100;5.056;2022-09-09T01:55:32;100704.88;;;16.50;75.95
49813;BME280;35706;52.100;5.056;2022-09-09T01:57:50;100704.19;;;16.94;73.88
49813;BME280;35706;52.100;5.056;2022-09-09T02:00:13;100706.16;;;16.54;75.21
49813;BME280;35706;52.100;5.056;2022-09-09T02:02:36;100701.25;;;16.89;74.20
49813;BME280;35706;52.100;5.056;2022-09-09T02:03:40;100708.59;;;17.02;73.72
49813;BME280;35706;52.100;5.056;2022-09-09T02:04:48;100698.88;;;16.94;74.05
49813;BME280;35706;52.100;5.056;2022-09-09T02:07:25;100699.28;;;17.06;73.14
49813;BME280;35706;52.100;5.056;2022-09-09T02:08:40;100697.88;;;17.10;73.18
49813;BME280;35706;52.100;5.056;2022-09-09T02:09:47;100699.34;;;16.98;73.51
49813;BME280;35706;52.100;5.056;2022-09-09T02:11:00;100695.41;;;16.94;74.12
49813;BME280;35706;52.100;5.056;2022-09-09T02:12:14;100692.66;;;16.87;74.04
49813;BME280;35706;52.100;5.056;2022-09-09T02:13:19;100690.00;;;16.87;74.25
49813;BME280;35706;52.100;5.056;2022-09-09T02:14:25;100697.78;;;17.03;73.04
49813;BME280;35706;52.100;5.056;2022-09-09T02:15:45;100692.94;;;16.92;73.56
49813;BME280;35706;52.100;5.056;2022-09-09T02:16:51;100696.50;;;16.76;74.39
49813;BME280;35706;52.100;5.056;2022-09-09T02:17:56;100697.84;;;16.95;73.70
49813;BME280;35706;52.100;5.056;2022-09-09T02:20:07;100691.75;;;16.72;74.51
49813;BME280;35706;52.100;5.056;2022-09-09T02:21:11;100695.44;;;16.71;74.39
49813;BME280;35706;52.100;5.056;2022-09-09T02:22:16;100696.69;;;16.83;74.43
49813;BME280;35706;52.100;5.056;2022-09-09T02:23:17;100701.69;;;16.55;75.60
49813;BME280;35706;52.100;5.056;2022-09-09T02:24:18;100699.72;;;16.72;74.77
49813;BME280;35706;52.100;5.056;2022-09-09T02:25:21;100703.53;;;16.54;75.70
49813;BME280;35706;52.100;5.056;2022-09-09T02:26:23;100700.66;;;16.79;74.46
49813;BME280;35706;52.100;5.056;2022-09-09T02:27:23;100708.03;;;16.68;74.79
49813;BME280;35706;52.100;5.056;2022-09-09T02:28:26;100706.53;;;16.51;75.77
49813;BME280;35706;52.100;5.056;2022-09-09T02:29:33;100698.84;;;16.56;75.72
49813;BME280;35706;52.100;5.056;2022-09-09T02:30:34;100694.94;;;16.67;74.97
49813;BME280;35706;52.100;5.056;2022-09-09T02:31:38;100696.13;;;16.64;75.29
49813;BME280;35706;52.100;5.056;2022-09-09T02:32:42;100696.03;;;16.81;74.53
49813;BME280;35706;52.100;5.056;2022-09-09T02:33:48;100699.56;;;16.50;75.53
49813;BME280;35706;52.100;5.056;2022-09-09T02:34:59;100699.59;;;16.65;75.03
49813;BME280;35706;52.100;5.056;2022-09-09T02:36:02;100688.28;;;16.71;74.78
49813;BME280;35706;52.100;5.056;2022-09-09T02:37:04;100694.84;;;16.60;74.67
49813;BME280;35706;52.100;5.056;2022-09-09T02:38:08;100693.63;;;16.25;76.61
49813;BME280;35706;52.100;5.056;2022-09-09T02:39:10;100691.50;;;16.43;76.06
49813;BME280;35706;52.100;5.056;2022-09-09T02:40:12;100687.09;;;16.74;74.58
49813;BME280;35706;52.100;5.056;2022-09-09T02:41:14;100685.97;;;16.53;75.57
49813;BME280;35706;52.100;5.056;2022-09-09T02:42:15;100687.44;;;16.56;75.26
49813;BME280;35706;52.100;5.056;2022-09-09T02:43:15;100684.00;;;16.70;74.88
49813;BME280;35706;52.100;5.056;2022-09-09T02:44:19;100685.06;;;16.61;75.36
49813;BME280;35706;52.100;5.056;2022-09-09T02:45:27;100687.22;;;16.80;74.56
49813;BME280;35706;52.100;5.056;2022-09-09T02:47:07;100684.22;;;16.83;74.20
49813;BME280;35706;52.100;5.056;2022-09-09T02:48:14;100681.28;;;16.93;73.51
49813;BME280;35706;52.100;5.056;2022-09-09T02:49:27;100679.44;;;16.79;74.42
49813;BME280;35706;52.100;5.056;2022-09-09T02:50:31;100687.69;;;16.84;74.26
49813;BME280;35706;52.100;5.056;2022-09-09T02:51:49;100680.00;;;16.51;75.30
49813;BME280;35706;52.100;5.056;2022-09-09T02:54:07;100676.91;;;16.85;74.01
49813;BME280;35706;52.100;5.056;2022-09-09T02:55:18;100677.16;;;16.91;73.56
49813;BME280;35706;52.100;5.056;2022-09-09T02:56:23;100682.75;;;16.81;74.13
49813;BME280;35706;52.100;5.056;2022-09-09T02:57:28;100674.88;;;16.49;75.53
49813;BME280;35706;52.100;5.056;2022-09-09T02:58:30;100672.72;;;16.68;74.54
49813;BME280;35706;52.100;5.056;2022-09-09T02:59:31;100673.78;;;16.82;74.42
49813;BME280;35706;52.100;5.056;2022-09-09T03:00:33;100674.44;;;16.61;75.06
49813;BME280;35706;52.100;5.056;2022-09-09T03:01:35;100677.03;;;16.69;74.69
49813;BME280;35706;52.100;5.056;2022-09-09T03:02:36;100689.88;;;16.57;75.08
49813;BME280;35706;52.100;5.056;2022-09-09T03:03:37;100676.53;;;16.65;74.96
49813;BME280;35706;52.100;5.056;2022-09-09T03:04:38;100682.56;;;16.59;74.99
49813;BME280;35706;52.100;5.056;2022-09-09T03:05:39;100678.81;;;16.54;75.52
49813;BME280;35706;52.100;5.056;2022-09-09T03:06:39;100668.31;;;16.60;75.11
49813;BME280;35706;52.100;5.056;2022-09-09T03:07:39;100671.78;;;16.61;75.05
49813;BME280;35706;52.100;5.056;2022-09-09T03:08:40;100673.75;;;16.44;75.68
49813;BME280;35706;52.100;5.056;2022-09-09T03:09:40;100665.97;;;16.42;76.05
49813;BME280;35706;52.100;5.056;2022-09-09T03:10:40;100675.22;;;16.46;75.80
49813;BME280;35706;52.100;5.056;2022-09-09T03:11:41;100665.09;;;16.27;76.74
49813;BME280;35706;52.100;5.056;2022-09-09T03:12:41;100677.00;;;16.54;75.50
49813;BME280;35706;52.100;5.056;2022-09-09T03:13:41;100678.81;;;16.54;75.03
49813;BME280;35706;52.100;5.056;2022-09-09T03:14:42;100666.13;;;16.64;75.12
49813;BME280;35706;52.100;5.056;2022-09-09T03:15:44;100672.94;;;16.43;76.20
49813;BME280;35706;52.100;5.056;2022-09-09T03:16:44;100666.81;;;16.43;75.77
49813;BME280;35706;52.100;5.056;2022-09-09T03:17:44;100669.41;;;16.51;75.22
49813;BME280;35706;52.100;5.056;2022-09-09T03:18:44;100666.31;;;16.62;75.36
49813;BME280;35706;52.100;5.056;2022-09-09T03:19:45;100670.78;;;16.62;74.60
49813;BME280;35706;52.100;5.056;2022-09-09T03:20:46;100673.84;;;16.51;75.44
49813;BME280;35706;52.100;5.056;2022-09-09T03:21:48;100667.91;;;16.25;76.36
49813;BME280;35706;52.100;5.056;2022-09-09T03:22:49;100674.63;;;16.21;76.88
49813;BME280;35706;52.100;5.056;2022-09-09T03:23:50;100675.75;;;16.19;77.00
49813;BME280;35706;52.100;5.056;2022-09-09T03:24:51;100677.13;;;16.15;77.01
49813;BME280;35706;52.100;5.056;2022-09-09T03:25:51;100670.06;;;16.07;77.51
49813;BME280;35706;52.100;5.056;2022-09-09T03:26:52;100672.81;;;16.37;76.27
49813;BME280;35706;52.100;5.056;2022-09-09T03:27:53;100666.44;;;16.46;76.01
49813;BME280;35706;52.100;5.056;2022-09-09T03:28:54;100669.81;;;16.17;76.90
49813;BME280;35706;52.100;5.056;2022-09-09T03:29:58;100670.00;;;16.15;77.03
49813;BME280;35706;52.100;5.056;2022-09-09T03:31:03;100672.00;;;16.36;76.18
49813;BME280;35706;52.100;5.056;2022-09-09T03:32:04;100669.63;;;16.41;76.05
49813;BME280;35706;52.100;5.056;2022-09-09T03:33:04;100674.13;;;16.41;76.29
49813;BME280;35706;52.100;5.056;2022-09-09T03:34:05;100668.00;;;16.40;75.79
49813;BME280;35706;52.100;5.056;2022-09-09T03:35:05;100677.97;;;16.38;75.64
49813;BME280;35706;52.100;5.056;2022-09-09T03:36:05;100674.00;;;16.11;77.28
49813;BME280;35706;52.100;5.056;2022-09-09T03:37:07;100664.81;;;16.22;76.48
49813;BME280;35706;52.100;5.056;2022-09-09T03:38:07;100667.53;;;16.37;75.89
49813;BME280;35706;52.100;5.056;2022-09-09T03:39:08;100671.22;;;16.27;76.36
49813;BME280;35706;52.100;5.056;2022-09-09T03:40:08;100674.84;;;16.35;75.82
49813;BME280;35706;52.100;5.056;2022-09-09T03:41:09;100668.94;;;16.24;76.24
49813;BME280;35706;52.100;5.056;2022-09-09T03:42:13;100670.22;;;16.28;76.19
49813;BME280;35706;52.100;5.056;2022-09-09T03:43:14;100671.53;;;16.33;75.92
49813;BME280;35706;52.100;5.056;2022-09-09T03:44:16;100668.47;;;16.21;76.44
49813;BME280;35706;52.100;5.056;2022-09-09T03:45:16;100671.91;;;16.44;75.49
49813;BME280;35706;52.100;5.056;2022-09-09T03:46:18;100667.16;;;16.40;75.46
49813;BME280;35706;52.100;5.056;2022-09-09T03:47:20;100668.19;;;16.16;76.71
49813;BME280;35706;52.100;5.056;2022-09-09T03:48:21;100660.69;;;16.19;76.30
49813;BME280;35706;52.100;5.056;2022-09-09T03:49:22;100669.06;;;16.31;76.00
49813;BME280;35706;52.100;5.056;2022-09-09T03:50:22;100676.66;;;16.11;76.55
49813;BME280;35706;52.100;5.056;2022-09-09T03:51:23;100662.75;;;16.09;76.66
49813;BME280;35706;52.100;5.056;2022-09-09T03:52:24;100663.53;;;16.18;76.03
49813;BME280;35706;52.100;5.056;2022-09-09T03:53:26;100671.75;;;16.23;76.13
49813;BME280;35706;52.100;5.056;2022-09-09T03:54:27;100670.47;;;16.19;76.25
49813;BME280;35706;52.100;5.056;2022-09-09T03:55:30;100669.06;;;16.08;76.70
49813;BME280;35706;52.100;5.056;2022-09-09T03:56:31;100676.25;;;16.22;75.91
49813;BME280;35706;52.100;5.056;2022-09-09T03:57:32;100680.97;;;16.12;76.33
49813;BME280;35706;52.100;5.056;2022-09-09T03:58:36;100666.44;;;16.00;76.98
49813;BME280;35706;52.100;5.056;2022-09-09T03:59:36;100661.09;;;16.08;76.57
49813;BME280;35706;52.100;5.056;2022-09-09T04:00:37;100668.66;;;16.19;76.09
49813;BME280;35706;52.100;5.056;2022-09-09T04:01:44;100663.09;;;16.29;75.98
49813;BME280;35706;52.100;5.056;2022-09-09T04:02:45;100663.25;;;16.27;75.89
49813;BME280;35706;52.100;5.056;2022-09-09T04:03:46;100660.56;;;16.36;75.54
49813;BME280;35706;52.100;5.056;2022-09-09T04:04:46;100661.41;;;16.36;75.49
49813;BME280;35706;52.100;5.056;2022-09-09T04:05:49;100665.16;;;16.42;75.04
49813;BME280;35706;52.100;5.056;2022-09-09T04:06:49;100657.25;;;16.34;75.41
49813;BME280;35706;52.100;5.056;2022-09-09T04:07:51;100654.09;;;16.38;75.38
49813;BME280;35706;52.100;5.056;2022-09-09T04:08:51;100650.19;;;16.49;74.71
49813;BME280;35706;52.100;5.056;2022-09-09T04:09:52;100652.91;;;16.41;74.97
49813;BME280;35706;52.100;5.056;2022-09-09T04:10:53;100649.66;;;16.31;75.47
49813;BME280;35706;52.100;5.056;2022-09-09T04:11:57;100654.59;;;16.34;75.44
49813;BME280;35706;52.100;5.056;2022-09-09T04:12:57;100655.75;;;16.16;76.28
49813;BME280;35706;52.100;5.056;2022-09-09T04:13:57;100657.50;;;16.24;75.75
49813;BME280;35706;52.100;5.056;2022-09-09T04:14:57;100653.44;;;16.36;75.24
49813;BME280;35706;52.100;5.056;2022-09-09T04:15:59;100646.66;;;16.11;76.39
49813;BME280;35706;52.100;5.056;2022-09-09T04:16:59;100654.81;;;16.32;75.55
49813;BME280;35706;52.100;5.056;2022-09-09T04:18:00;100653.53;;;16.43;75.02
49813;BME280;35706;52.100;5.056;2022-09-09T04:19:00;100652.91;;;16.41;74.98
49813;BME280;35706;52.100;5.056;2022-09-09T04:20:02;100653.50;;;16.28;75.59
49813;BME280;35706;52.100;5.056;2022-09-09T04:21:03;100656.44;;;16.33;75.20
49813;BME280;35706;52.100;5.056;2022-09-09T04:22:04;100655.06;;;16.37;75.27
49813;BME280;35706;52.100;5.056;2022-09-09T04:23:04;100653.31;;;16.29;75.32
49813;BME280;35706;52.100;5.056;2022-09-09T04:24:06;100648.66;;;16.32;75.44
49813;BME280;35706;52.100;5.056;2022-09-09T04:25:07;100657.03;;;16.20;75.70
49813;BME280;35706;52.100;5.056;2022-09-09T04:26:08;100645.56;;;16.28;74.99
49813;BME280;35706;52.100;5.056;2022-09-09T04:27:09;100642.19;;;16.11;75.98
49813;BME280;35706;52.100;5.056;2022-09-09T04:28:09;100645.72;;;16.26;75.69
49813;BME280;35706;52.100;5.056;2022-09-09T04:29:09;100641.06;;;16.28;75.13
49813;BME280;35706;52.100;5.056;2022-09-09T04:30:10;100639.22;;;16.29;75.54
49813;BME280;35706;52.100;5.056;2022-09-09T04:31:19;100637.81;;;16.18;75.84
49813;BME280;35706;52.100;5.056;2022-09-09T04:32:20;100634.75;;;16.29;75.33
49813;BME280;35706;52.100;5.056;2022-09-09T04:33:21;100632.47;;;16.26;75.41
49813;BME280;35706;52.100;5.056;2022-09-09T04:34:21;100629.09;;;16.33;75.34
49813;BME280;35706;52.100;5.056;2022-09-09T04:35:21;100623.25;;;16.37;75.06
49813;BME280;35706;52.100;5.056;2022-09-09T07:57:37;100643.22;;;16.25;79.18
49813;BME280;35706;52.100;5.056;2022-09-09T07:58:38;100646.56;;;16.42;78.72
49813;BME280;35706;52.100;5.056;2022-09-09T07:59:39;100651.22;;;16.40;78.78
49813;BME280;35706;52.100;5.056;2022-09-09T08:00:39;100638.03;;;16.32;79.22
49813;BME280;35706;52.100;5.056;2022-09-09T08:01:51;100632.78;;;16.46;78.50
49813;BME280;35706;52.100;5.056;2022-09-09T08:02:54;100643.78;;;16.58;78.23
49813;BME280;35706;52.100;5.056;2022-09-09T08:03:57;100637.47;;;16.59;78.03
49813;BME280;35706;52.100;5.056;2022-09-09T08:05:01;100639.69;;;16.71;77.14
49813;BME280;35706;52.100;5.056;2022-09-09T08:06:07;100640.59;;;16.78;76.67
49813;BME280;35706;52.100;5.056;2022-09-09T08:07:08;100637.56;;;16.51;77.95
49813;BME280;35706;52.100;5.056;2022-09-09T08:08:08;100641.41;;;16.63;77.13
49813;BME280;35706;52.100;5.056;2022-09-09T08:09:10;100634.66;;;16.76;76.35
49813;BME280;35706;52.100;5.056;2022-09-09T08:10:10;100646.09;;;16.76;76.63
49813;BME280;35706;52.100;5.056;2022-09-09T08:11:13;100639.44;;;16.80;76.09
49813;BME280;35706;52.100;5.056;2022-09-09T08:12:14;100634.25;;;16.87;76.11
49813;BME280;35706;52.100;5.056;2022-09-09T08:13:15;100637.34;;;16.91;76.07
49813;BME280;35706;52.100;5.056;2022-09-09T08:14:15;100634.13;;;16.95;75.86
49813;BME280;35706;52.100;5.056;2022-09-09T08:15:15;100635.03;;;16.73;76.61
49813;BME280;35706;52.100;5.056;2022-09-09T08:16:25;100633.47;;;16.78;76.75
49813;BME280;35706;52.100;5.056;2022-09-09T08:17:25;100627.09;;;16.87;76.29
49813;BME280;35706;52.100;5.056;2022-09-09T08:18:26;100648.06;;;16.97;75.82
49813;BME280;35706;52.100;5.056;2022-09-09T08:19:27;100638.91;;;16.85;76.14
49813;BME280;35706;52.100;5.056;2022-09-09T08:20:30;100646.88;;;16.85;75.63
49813;BME280;35706;52.100;5.056;2022-09-09T08:21:31;100666.50;;;16.76;76.06
49813;BME280;35706;52.100;5.056;2022-09-09T08:22:33;100646.91;;;16.62;76.44
49813;BME280;35706;52.100;5.056;2022-09-09T08:23:34;100659.00;;;16.64;76.87
49813;BME280;35706;52.100;5.056;2022-09-09T08:24:35;100650.84;;;16.66;76.84
49813;BME280;35706;52.100;5.056;2022-09-09T08:25:36;100644.22;;;16.85;76.05
49813;BME280;35706;52.100;5.056;2022-09-09T08:26:38;100640.47;;;16.94;75.59
49813;BME280;35706;52.100;5.056;2022-09-09T08:27:38;100632.03;;;16.91;75.46
49813;BME280;35706;52.100;5.056;2022-09-09T08:28:39;100651.22;;;16.78;75.97
49813;BME280;35706;52.100;5.056;2022-09-09T08:29:40;100645.69;;;16.87;75.91
49813;BME280;35706;52.100;5.056;2022-09-09T08:30:40;100646.56;;;16.80;76.30
49813;BME280;35706;52.100;5.056;2022-09-09T08:31:44;100649.53;;;16.85;76.31
49813;BME280;35706;52.100;5.056;2022-09-09T08:32:45;100646.88;;;16.85;75.98
49813;BME280;35706;52.100;5.056;2022-09-09T08:33:45;100654.69;;;16.78;76.36
49813;BME280;35706;52.100;5.056;2022-09-09T08:34:46;100644.75;;;16.80;76.59
49813;BME280;35706;52.100;5.056;2022-09-09T08:35:50;100645.44;;;16.74;77.13
49813;BME280;35706;52.100;5.056;2022-09-09T08:36:51;100649.28;;;16.72;76.75
49813;BME280;35706;52.100;5.056;2022-09-09T08:37:54;100646.28;;;16.60;77.37
49813;BME280;35706;52.100;5.056;2022-09-09T08:38:56;100661.03;;;16.77;76.58
49813;BME280;35706;52.100;5.056;2022-09-09T08:39:56;100665.56;;;16.92;75.89
49813;BME280;35706;52.100;5.056;2022-09-09T08:42:38;100657.91;;;16.74;76.74
49813;BME280;35706;52.100;5.056;2022-09-09T08:43:42;100654.47;;;16.88;76.00
49813;BME280;35706;52.100;5.056;2022-09-09T08:46:07;100659.06;;;16.94;76.10
49813;BME280;35706;52.100;5.056;2022-09-09T08:48:57;100670.03;;;16.91;75.62
49813;BME280;35706;52.100;5.056;2022-09-09T08:50:21;100657.84;;;16.82;76.31
49813;BME280;35706;52.100;5.056;2022-09-09T08:51:29;100670.63;;;16.78;76.24
49813;BME280;35706;52.100;5.056;2022-09-09T08:52:43;100659.22;;;16.93;75.92
49813;BME280;35706;52.100;5.056;2022-09-09T08:53:48;100666.19;;;16.94;76.18
49813;BME280;35706;52.100;5.056;2022-09-09T08:54:50;100657.06;;;16.73;76.73
49813;BME280;35706;52.100;5.056;2022-09-09T08:55:52;100654.59;;;16.72;76.56
49813;BME280;35706;52.100;5.056;2022-09-09T08:56:55;100662.81;;;16.85;76.08
49813;BME280;35706;52.100;5.056;2022-09-09T08:57:58;100666.19;;;16.94;75.74
49813;BME280;35706;52.100;5.056;2022-09-09T08:59:02;100668.63;;;16.80;76.42
49813;BME280;35706;52.100;5.056;2022-09-09T09:00:03;100662.06;;;16.91;76.05
49813;BME280;35706;52.100;5.056;2022-09-09T09:04:15;100660.97;;;17.00;76.13
49813;BME280;35706;52.100;5.056;2022-09-09T09:05:28;100657.03;;;16.96;76.17
49813;BME280;35706;52.100;5.056;2022-09-09T09:06:39;100661.63;;;16.87;76.28
49813;BME280;35706;52.100;5.056;2022-09-09T09:07:49;100663.16;;;16.97;75.95
49813;BME280;35706;52.100;5.056;2022-09-09T09:10:10;100656.97;;;17.04;75.57
49813;BME280;35706;52.100;5.056;2022-09-09T09:11:12;100660.91;;;17.08;75.33
49813;BME280;35706;52.100;5.056;2022-09-09T09:12:19;100681.28;;;17.08;75.38
49813;BME280;35706;52.100;5.056;2022-09-09T09:14:34;100670.66;;;17.08;75.44
49813;BME280;35706;52.100;5.056;2022-09-09T09:15:37;100666.84;;;16.96;75.73
49813;BME280;35706;52.100;5.056;2022-09-09T09:17:58;100668.94;;;17.00;75.77
49813;BME280;35706;52.100;5.056;2022-09-09T09:18:59;100667.66;;;17.11;75.12
49813;BME280;35706;52.100;5.056;2022-09-09T09:20:00;100683.59;;;16.96;75.52
49813;BME280;35706;52.100;5.056;2022-09-09T09:21:11;100671.94;;;16.82;76.21
49813;BME280;35706;52.100;5.056;2022-09-09T09:22:20;100673.09;;;16.80;76.56
49813;BME280;35706;52.100;5.056;2022-09-09T09:23:24;100672.06;;;16.89;76.20
49813;BME280;35706;52.100;5.056;2022-09-09T09:25:44;100666.00;;;16.95;75.92
49813;BME280;35706;52.100;5.056;2022-09-09T09:26:45;100682.78;;;16.96;76.11
49813;BME280;35706;52.100;5.056;2022-09-09T09:27:59;100675.88;;;17.01;75.62
49813;BME280;35706;52.100;5.056;2022-09-09T09:29:08;100660.25;;;17.06;75.58
49813;BME280;35706;52.100;5.056;2022-09-09T09:30:16;100680.38;;;17.01;75.89
49813;BME280;35706;52.100;5.056;2022-09-09T09:31:17;100671.13;;;16.82;76.26
49813;BME280;35706;52.100;5.056;2022-09-09T09:32:20;100683.28;;;16.91;75.83
49813;BME280;35706;52.100;5.056;2022-09-09T09:33:27;100682.47;;;16.91;75.94
49813;BME280;35706;52.100;5.056;2022-09-09T09:34:29;100681.00;;;16.88;76.33
49813;BME280;35706;52.100;5.056;2022-09-09T09:35:29;100676.34;;;16.90;76.55
49813;BME280;35706;52.100;5.056;2022-09-09T09:36:42;100683.22;;;16.99;76.45
49813;BME280;35706;52.100;5.056;2022-09-09T09:37:45;100678.75;;;17.00;76.41
49813;BME280;35706;52.100;5.056;2022-09-09T09:38:58;100678.84;;;17.06;76.30